Terminal Aerodrome Forecast
Issued by NWS

Home | Current Version | Previous Version | Text Only | Print | Product List | Glossary On
Versions: 1 2 3 4 5 6 7 8 9 10 11 12
274
FTUS43 KICT 210521
TAFRSL
TAF
KRSL 210521Z 2106/2206 11012KT P6SM -SHRA OVC050
     FM211200 10011KT 6SM -SHRA OVC025
     FM211400 09011KT 5SM -SHRA OVC008
     FM220000 05009KT P6SM VCSH OVC008
     FM220200 04007KT P6SM VCSH OVC004
     FM220400 03006KT P6SM VCSH OVC008=

USA.gov is the U.S. government's official web portal to all federal, state and local government web resources and services.